sensor_id;sensor_type;location;lat;lon;timestamp;pressure;altitude;pressure_sealevel;temperature;humidity
20455;BME280;10386;54.314;10.022;2023-03-03T00:00:04;102205.53;;;1.05;100.00
20455;BME280;10386;54.314;10.022;2023-03-03T00:02:31;102208.31;;;0.96;100.00
20455;BME280;10386;54.314;10.022;2023-03-03T00:04:58;102209.31;;;0.86;100.00
20455;BME280;10386;54.314;10.022;2023-03-03T00:07:25;102205.78;;;0.83;100.00
20455;BME280;10386;54.314;10.022;2023-03-03T00:09:51;102202.25;;;0.78;100.00
20455;BME280;10386;54.314;10.022;2023-03-03T00:12:23;102202.34;;;0.70;100.00
20455;BME280;10386;54.314;10.022;2023-03-03T00:14:50;102204.19;;;0.65;100.00
20455;BME280;10386;54.314;10.022;2023-03-03T00:17:25;102206.97;;;0.52;100.00
20455;BME280;10386;54.314;10.022;2023-03-03T00:19:53;102215.91;;;0.48;100.00
20455;BME280;10386;54.314;10.022;2023-03-03T00:22:35;102201.69;;;0.43;100.00
20455;BME280;10386;54.314;10.022;2023-03-03T00:27:45;102204.41;;;0.38;100.00
20455;BME280;10386;54.314;10.022;2023-03-03T00:30:23;102205.28;;;0.40;100.00
20455;BME280;10386;54.314;10.022;2023-03-03T00:32:54;102201.72;;;0.44;100.00
20455;BME280;10386;54.314;10.022;2023-03-03T00:35:32;102205.31;;;0.39;100.00
20455;BME280;10386;54.314;10.022;2023-03-03T00:38:12;102200.97;;;0.26;100.00
20455;BME280;10386;54.314;10.022;2023-03-03T00:40:40;102220.75;;;-0.06;100.00
20455;BME280;10386;54.314;10.022;2023-03-03T00:43:33;102217.22;;;-0.10;100.00
20455;BME280;10386;54.314;10.022;2023-03-03T00:46:01;102210.97;;;-0.06;100.00
20455;BME280;10386;54.314;10.022;2023-03-03T00:53:39;102223.50;;;-0.23;100.00
20455;BME280;10386;54.314;10.022;2023-03-03T00:56:06;102214.59;;;-0.19;100.00
20455;BME280;10386;54.314;10.022;2023-03-03T00:58:33;102212.84;;;-0.18;100.00
20455;BME280;10386;54.314;10.022;2023-03-03T01:00:59;102208.41;;;-0.22;100.00
20455;BME280;10386;54.314;10.022;2023-03-03T01:03:26;102212.00;;;-0.29;100.00
20455;BME280;10386;54.314;10.022;2023-03-03T01:05:53;102208.44;;;-0.30;100.00
20455;BME280;10386;54.314;10.022;2023-03-03T01:08:20;102216.50;;;-0.39;100.00
20455;BME280;10386;54.314;10.022;2023-03-03T01:10:54;102205.84;;;-0.37;100.00
20455;BME280;10386;54.314;10.022;2023-03-03T01:13:23;102210.28;;;-0.36;100.00
20455;BME280;10386;54.314;10.022;2023-03-03T01:15:51;102204.94;;;-0.39;100.00
20455;BME280;10386;54.314;10.022;2023-03-03T01:18:18;102203.19;;;-0.40;100.00
20455;BME280;10386;54.314;10.022;2023-03-03T01:20:45;102201.41;;;-0.41;100.00
20455;BME280;10386;54.314;10.022;2023-03-03T01:23:12;102201.44;;;-0.56;100.00
20455;BME280;10386;54.314;10.022;2023-03-03T01:25:39;102203.22;;;-0.52;100.00
20455;BME280;10386;54.314;10.022;2023-03-03T01:28:06;102209.47;;;-0.58;100.00
20455;BME280;10386;54.314;10.022;2023-03-03T01:30:33;102203.25;;;-0.60;100.00
20455;BME280;10386;54.314;10.022;2023-03-03T01:33:00;102206.88;;;-0.77;100.00
20455;BME280;10386;54.314;10.022;2023-03-03T01:35:27;102203.34;;;-0.82;100.00
20455;BME280;10386;54.314;10.022;2023-03-03T01:37:55;102201.53;;;-0.71;100.00
20455;BME280;10386;54.314;10.022;2023-03-03T01:40:25;102194.44;;;-0.74;100.00
20455;BME280;10386;54.314;10.022;2023-03-03T01:42:52;102195.38;;;-0.88;100.00
20455;BME280;10386;54.314;10.022;2023-03-03T01:45:28;102197.16;;;-0.95;100.00
20455;BME280;10386;54.314;10.022;2023-03-03T01:48:03;102195.34;;;-0.82;100.00
20455;BME280;10386;54.314;10.022;2023-03-03T01:50:36;102188.25;;;-0.82;100.00
20455;BME280;10386;54.314;10.022;2023-03-03T01:53:15;102194.47;;;-0.83;100.00
20455;BME280;10386;54.314;10.022;2023-03-03T01:55:43;102194.47;;;-0.89;100.00
20455;BME280;10386;54.314;10.022;2023-03-03T01:58:41;102188.25;;;-0.82;100.00
20455;BME280;10386;54.314;10.022;2023-03-03T02:01:19;102190.88;;;-0.77;100.00
20455;BME280;10386;54.314;10.022;2023-03-03T02:03:47;102188.22;;;-0.76;100.00
20455;BME280;10386;54.314;10.022;2023-03-03T02:06:20;102177.56;;;-0.76;100.00
20455;BME280;10386;54.314;10.022;2023-03-03T02:08:50;102183.84;;;-0.96;100.00
20455;BME280;10386;54.314;10.022;2023-03-03T02:11:21;102178.56;;;-1.05;100.00
20455;BME280;10386;54.314;10.022;2023-03-03T02:13:48;102198.09;;;-1.09;100.00
20455;BME280;10386;54.314;10.022;2023-03-03T02:16:15;102198.06;;;-1.05;100.00
20455;BME280;10386;54.314;10.022;2023-03-03T02:18:42;102206.03;;;-0.99;100.00
20455;BME280;10386;54.314;10.022;2023-03-03T02:21:15;102209.66;;;-1.18;100.00
20455;BME280;10386;54.314;10.022;2023-03-03T02:24:12;102210.56;;;-1.22;100.00
20455;BME280;10386;54.314;10.022;2023-03-03T02:26:44;102218.53;;;-1.13;100.00
20455;BME280;10386;54.314;10.022;2023-03-03T02:29:11;102214.06;;;-1.05;100.00
20455;BME280;10386;54.314;10.022;2023-03-03T02:31:38;102215.91;;;-1.34;100.00
20455;BME280;10386;54.314;10.022;2023-03-03T02:34:05;102220.34;;;-1.38;100.00
20455;BME280;10386;54.314;10.022;2023-03-03T02:36:35;102209.69;;;-1.33;100.00
20455;BME280;10386;54.314;10.022;2023-03-03T02:39:21;102213.25;;;-1.50;100.00
20455;BME280;10386;54.314;10.022;2023-03-03T02:41:56;102198.16;;;-1.38;100.00
20455;BME280;10386;54.314;10.022;2023-03-03T02:44:28;102198.13;;;-1.39;100.00
20455;BME280;10386;54.314;10.022;2023-03-03T02:46:56;102205.25;;;-1.45;100.00
20455;BME280;10386;54.314;10.022;2023-03-03T02:49:30;102200.81;;;-1.43;100.00
20455;BME280;10386;54.314;10.022;2023-03-03T02:51:58;102204.34;;;-1.37;100.00
20455;BME280;10386;54.314;10.022;2023-03-03T02:54:27;102209.69;;;-1.38;100.00
20455;BME280;10386;54.314;10.022;2023-03-03T02:56:57;102208.78;;;-1.36;100.00
20455;BME280;10386;54.314;10.022;2023-03-03T02:59:24;102199.91;;;-1.35;100.00
20455;BME280;10386;54.314;10.022;2023-03-03T03:01:51;102205.22;;;-1.35;100.00
20455;BME280;10386;54.314;10.022;2023-03-03T03:04:23;102191.06;;;-1.38;100.00
20455;BME280;10386;54.314;10.022;2023-03-03T03:06:51;102200.81;;;-1.75;100.00
20455;BME280;10386;54.314;10.022;2023-03-03T03:09:20;102196.38;;;-1.71;100.00
20455;BME280;10386;54.314;10.022;2023-03-03T03:11:47;102196.38;;;-1.64;100.00
20455;BME280;10386;54.314;10.022;2023-03-03T03:14:14;102189.28;;;-1.59;100.00
20455;BME280;10386;54.314;10.022;2023-03-03T03:16:41;102194.63;;;-1.54;100.00
20455;BME280;10386;54.314;10.022;2023-03-03T03:19:08;102197.25;;;-1.50;100.00
20455;BME280;10386;54.314;10.022;2023-03-03T03:21:34;102189.28;;;-1.47;100.00
20455;BME280;10386;54.314;10.022;2023-03-03T03:24:01;102197.28;;;-1.66;100.00
20455;BME280;10386;54.314;10.022;2023-03-03T03:26:28;102179.53;;;-1.73;100.00
20455;BME280;10386;54.314;10.022;2023-03-03T03:28:55;102183.06;;;-1.74;100.00
20455;BME280;10386;54.314;10.022;2023-03-03T03:31:22;102175.09;;;-1.71;100.00
20455;BME280;10386;54.314;10.022;2023-03-03T03:33:48;102180.41;;;-1.64;100.00
20455;BME280;10386;54.314;10.022;2023-03-03T03:36:15;102176.00;;;-1.63;100.00
20455;BME280;10386;54.314;10.022;2023-03-03T03:38:42;102175.13;;;-1.68;100.00
20455;BME280;10386;54.314;10.022;2023-03-03T03:41:10;102168.91;;;-1.81;100.00
20455;BME280;10386;54.314;10.022;2023-03-03T03:43:38;102168.88;;;-1.72;100.00
20455;BME280;10386;54.314;10.022;2023-03-03T03:46:05;102166.22;;;-1.75;100.00
20455;BME280;10386;54.314;10.022;2023-03-03T03:48:31;102164.47;;;-1.79;100.00
20455;BME280;10386;54.314;10.022;2023-03-03T03:50:58;102165.31;;;-1.75;100.00
20455;BME280;10386;54.314;10.022;2023-03-03T03:53:25;102170.66;;;-1.72;100.00
20455;BME280;10386;54.314;10.022;2023-03-03T03:55:52;102170.66;;;-1.72;100.00
20455;BME280;10386;54.314;10.022;2023-03-03T03:58:19;102160.91;;;-1.78;100.00
20455;BME280;10386;54.314;10.022;2023-03-03T04:00:46;102165.34;;;-1.74;100.00
20455;BME280;10386;54.314;10.022;2023-03-03T04:03:13;102172.41;;;-1.74;100.00
20455;BME280;10386;54.314;10.022;2023-03-03T04:05:40;102166.22;;;-1.70;100.00
20455;BME280;10386;54.314;10.022;2023-03-03T04:08:07;102168.88;;;-1.69;100.00
20455;BME280;10386;54.314;10.022;2023-03-03T04:10:34;102174.19;;;-1.70;100.00
20455;BME280;10386;54.314;10.022;2023-03-03T04:13:01;102180.41;;;-1.80;100.00
20455;BME280;10386;54.314;10.022;2023-03-03T04:15:28;102190.16;;;-1.88;100.00
20455;BME280;10386;54.314;10.022;2023-03-03T04:17:55;102197.25;;;-1.81;100.00
20455;BME280;10386;54.314;10.022;2023-03-03T04:20:22;102194.59;;;-1.84;100.00
20455;BME280;10386;54.314;10.022;2023-03-03T04:22:49;102193.72;;;-1.85;100.00
20455;BME280;10386;54.314;10.022;2023-03-03T04:25:16;102193.72;;;-1.91;100.00
20455;BME280;10386;54.314;10.022;2023-03-03T04:27:43;102194.63;;;-1.89;100.00
20455;BME280;10386;54.314;10.022;2023-03-03T04:30:12;102204.34;;;-2.04;100.00
20455;BME280;10386;54.314;10.022;2023-03-03T04:32:39;102199.91;;;-2.10;100.00
20455;BME280;10386;54.314;10.022;2023-03-03T04:35:06;102207.00;;;-2.07;100.00
20455;BME280;10386;54.314;10.022;2023-03-03T04:37:36;102205.19;;;-2.25;100.00
20455;BME280;10386;54.314;10.022;2023-03-03T04:40:05;102195.44;;;-2.30;100.00
20455;BME280;10386;54.314;10.022;2023-03-03T04:42:32;102206.97;;;-2.28;100.00
20455;BME280;10386;54.314;10.022;2023-03-03T04:44:59;102192.81;;;-2.18;100.00
20455;BME280;10386;54.314;10.022;2023-03-03T04:47:26;102186.63;;;-1.96;100.00
20455;BME280;10386;54.314;10.022;2023-03-03T04:49:53;102177.75;;;-1.91;100.00
20455;BME280;10386;54.314;10.022;2023-03-03T04:52:19;102164.44;;;-1.55;100.00
20455;BME280;10386;54.314;10.022;2023-03-03T04:54:46;102188.34;;;-1.15;100.00
20455;BME280;10386;54.314;10.022;2023-03-03T04:57:13;102187.34;;;-0.85;100.00
20455;BME280;10386;54.314;10.022;2023-03-03T04:59:39;102182.72;;;-0.43;100.00
20455;BME280;10386;54.314;10.022;2023-03-03T05:02:06;102171.97;;;-0.31;100.00
20455;BME280;10386;54.314;10.022;2023-03-03T05:04:33;102171.88;;;-0.13;100.00
20455;BME280;10386;54.314;10.022;2023-03-03T05:07:00;102162.91;;;0.00;100.00
20455;BME280;10386;54.314;10.022;2023-03-03T05:09:27;102160.19;;;0.04;100.00
20455;BME280;10386;54.314;10.022;2023-03-03T05:11:54;102156.69;;;-0.03;100.00
20455;BME280;10386;54.314;10.022;2023-03-03T05:14:20;102145.94;;;0.07;100.00
20455;BME280;10386;54.314;10.022;2023-03-03T05:16:47;102137.84;;;0.14;100.00
20455;BME280;10386;54.314;10.022;2023-03-03T05:19:14;102132.53;;;0.16;100.00
20455;BME280;10386;54.314;10.022;2023-03-03T05:21:41;102132.47;;;0.20;100.00
20455;BME280;10386;54.314;10.022;2023-03-03T05:24:09;102128.00;;;0.24;100.00
20455;BME280;10386;54.314;10.022;2023-03-03T05:26:37;102131.63;;;0.12;100.00
20455;BME280;10386;54.314;10.022;2023-03-03T05:29:05;102134.25;;;0.20;100.00
20455;BME280;10386;54.314;10.022;2023-03-03T05:31:32;102125.25;;;0.28;100.00
20455;BME280;10386;54.314;10.022;2023-03-03T05:33:59;102120.75;;;0.33;100.00
20455;BME280;10386;54.314;10.022;2023-03-03T05:36:26;102119.00;;;0.34;100.00
20455;BME280;10386;54.314;10.022;2023-03-03T05:38:53;102120.69;;;0.42;100.00
20455;BME280;10386;54.314;10.022;2023-03-03T05:41:19;102110.00;;;0.44;100.00
20455;BME280;10386;54.314;10.022;2023-03-03T05:43:46;102109.03;;;0.51;100.00
20455;BME280;10386;54.314;10.022;2023-03-03T05:46:13;102108.19;;;0.46;100.00
20455;BME280;10386;54.314;10.022;2023-03-03T05:48:40;102107.31;;;0.44;100.00
20455;BME280;10386;54.314;10.022;2023-03-03T05:51:07;102103.72;;;0.48;100.00
20455;BME280;10386;54.314;10.022;2023-03-03T05:53:33;102101.00;;;0.51;100.00
20455;BME280;10386;54.314;10.022;2023-03-03T05:56:00;102097.47;;;0.50;100.00
20455;BME280;10386;54.314;10.022;2023-03-03T05:58:27;102100.19;;;0.47;100.00
20455;BME280;10386;54.314;10.022;2023-03-03T06:00:54;102096.56;;;0.50;100.00
20455;BME280;10386;54.314;10.022;2023-03-03T06:03:21;102036.91;;;0.52;100.00
20455;BME280;10386;54.314;10.022;2023-03-03T06:05:48;102034.34;;;0.43;100.00
20455;BME280;10386;54.314;10.022;2023-03-03T06:08:14;102030.66;;;0.52;100.00
20455;BME280;10386;54.314;10.022;2023-03-03T06:10:41;102014.72;;;0.46;100.00
20455;BME280;10386;54.314;10.022;2023-03-03T06:13:08;102014.72;;;0.46;100.00
20455;BME280;10386;54.314;10.022;2023-03-03T06:15:35;102006.66;;;0.49;100.00
20455;BME280;10386;54.314;10.022;2023-03-03T06:18:02;102011.13;;;0.48;100.00
20455;BME280;10386;54.314;10.022;2023-03-03T06:20:28;102003.06;;;0.50;100.00
20455;BME280;10386;54.314;10.022;2023-03-03T06:22:55;102009.28;;;0.52;100.00
20455;BME280;10386;54.314;10.022;2023-03-03T06:25:22;102007.47;;;0.54;100.00
20455;BME280;10386;54.314;10.022;2023-03-03T06:27:52;102001.28;;;0.53;100.00
20455;BME280;10386;54.314;10.022;2023-03-03T06:30:19;102005.72;;;0.53;100.00
20455;BME280;10386;54.314;10.022;2023-03-03T06:32:46;102005.72;;;0.54;100.00
20455;BME280;10386;54.314;10.022;2023-03-03T06:35:13;102000.41;;;0.51;100.00
20455;BME280;10386;54.314;10.022;2023-03-03T06:37:40;101991.44;;;0.55;100.00
20455;BME280;10386;54.314;10.022;2023-03-03T06:40:07;101995.94;;;0.52;100.00
20455;BME280;10386;54.314;10.022;2023-03-03T06:42:34;101997.69;;;0.53;100.00
20455;BME280;10386;54.314;10.022;2023-03-03T06:45:01;101995.91;;;0.55;100.00
20455;BME280;10386;54.314;10.022;2023-03-03T06:47:28;101986.16;;;0.51;100.00
20455;BME280;10386;54.314;10.022;2023-03-03T06:49:54;101987.91;;;0.52;100.00
20455;BME280;10386;54.314;10.022;2023-03-03T06:52:24;101979.88;;;0.56;100.00
20455;BME280;10386;54.314;10.022;2023-03-03T06:54:54;101987.81;;;0.61;100.00
20455;BME280;10386;54.314;10.022;2023-03-03T06:57:30;101970.00;;;0.60;100.00
20455;BME280;10386;54.314;10.022;2023-03-03T07:00:05;101969.09;;;0.61;100.00
20455;BME280;10386;54.314;10.022;2023-03-03T07:02:36;101959.28;;;0.64;100.00
20455;BME280;10386;54.314;10.022;2023-03-03T07:05:08;101957.44;;;0.68;100.00
20455;BME280;10386;54.314;10.022;2023-03-03T07:07:36;101961.03;;;0.64;100.00
20455;BME280;10386;54.314;10.022;2023-03-03T07:10:09;101952.97;;;0.68;100.00
20455;BME280;10386;54.314;10.022;2023-03-03T07:12:38;101950.22;;;0.73;100.00
20455;BME280;10386;54.314;10.022;2023-03-03T07:15:15;101950.19;;;0.76;100.00
20455;BME280;10386;54.314;10.022;2023-03-03T07:17:47;101953.72;;;0.79;100.00
20455;BME280;10386;54.314;10.022;2023-03-03T07:20:29;101954.53;;;0.86;100.00
20455;BME280;10386;54.314;10.022;2023-03-03T07:22:58;101942.00;;;0.89;100.00
20455;BME280;10386;54.314;10.022;2023-03-03T07:25:31;101941.03;;;0.95;100.00
20455;BME280;10386;54.314;10.022;2023-03-03T07:28:14;101935.50;;;1.07;100.00
20455;BME280;10386;54.314;10.022;2023-03-03T07:30:45;101923.78;;;1.14;100.00
20455;BME280;10386;54.314;10.022;2023-03-03T07:33:28;101920.25;;;1.12;100.00
20455;BME280;10386;54.314;10.022;2023-03-03T07:35:58;101914.81;;;1.16;100.00
20455;BME280;10386;54.314;10.022;2023-03-03T07:38:38;101907.50;;;1.27;100.00
20455;BME280;10386;54.314;10.022;2023-03-03T07:41:13;101905.56;;;1.38;100.00
20455;BME280;10386;54.314;10.022;2023-03-03T07:46:25;101909.31;;;1.28;100.00
20455;BME280;10386;54.314;10.022;2023-03-03T07:48:55;101905.56;;;1.36;100.00
20455;BME280;10386;54.314;10.022;2023-03-03T07:51:26;101896.69;;;1.36;100.00
20455;BME280;10386;54.314;10.022;2023-03-03T07:56:39;101888.50;;;1.43;100.00
20455;BME280;10386;54.314;10.022;2023-03-03T07:59:20;101880.50;;;1.43;100.00
20455;BME280;10386;54.314;10.022;2023-03-03T08:01:53;101874.16;;;1.47;100.00
20455;BME280;10386;54.314;10.022;2023-03-03T08:07:11;101857.09;;;1.56;100.00
20455;BME280;10386;54.314;10.022;2023-03-03T08:09:50;101857.94;;;1.58;100.00
20455;BME280;10386;54.314;10.022;2023-03-03T08:17:47;101852.47;;;1.62;100.00
20455;BME280;10386;54.314;10.022;2023-03-03T08:20:44;101848.47;;;1.86;100.00
20455;BME280;10386;54.314;10.022;2023-03-03T08:23:13;101839.31;;;1.96;100.00
20455;BME280;10386;54.314;10.022;2023-03-03T08:25:40;101830.31;;;2.01;100.00
20455;BME280;10386;54.314;10.022;2023-03-03T08:28:09;101854.94;;;2.18;100.00
20455;BME280;10386;54.314;10.022;2023-03-03T08:30:36;101836.81;;;2.31;100.00
20455;BME280;10386;54.314;10.022;2023-03-03T08:33:03;101744.69;;;2.36;100.00
20455;BME280;10386;54.314;10.022;2023-03-03T08:35:30;101739.75;;;2.56;100.00
20455;BME280;10386;54.314;10.022;2023-03-03T08:37:56;101733.34;;;2.62;100.00
20455;BME280;10386;54.314;10.022;2023-03-03T08:40:23;101713.44;;;3.05;100.00
20455;BME280;10386;54.314;10.022;2023-03-03T08:42:50;101703.28;;;3.17;100.00
20455;BME280;10386;54.314;10.022;2023-03-03T08:45:17;101693.97;;;3.30;100.00
20455;BME280;10386;54.314;10.022;2023-03-03T08:47:43;101685.25;;;3.53;100.00
20455;BME280;10386;54.314;10.022;2023-03-03T08:50:11;101687.41;;;3.40;100.00
20455;BME280;10386;54.314;10.022;2023-03-03T08:52:39;101681.38;;;3.63;100.00
20455;BME280;10386;54.314;10.022;2023-03-03T08:55:06;101680.28;;;3.70;100.00
20455;BME280;10386;54.314;10.022;2023-03-03T08:57:34;101664.81;;;3.78;100.00
20455;BME280;10386;54.314;10.022;2023-03-03T09:00:01;101651.41;;;4.05;100.00
20455;BME280;10386;54.314;10.022;2023-03-03T09:02:28;101603.75;;;4.37;100.00
20455;BME280;10386;54.314;10.022;2023-03-03T09:04:54;101600.78;;;4.45;100.00
20455;BME280;10386;54.314;10.022;2023-03-03T09:07:21;101594.38;;;4.49;100.00
20455;BME280;10386;54.314;10.022;2023-03-03T09:09:48;101602.66;;;4.69;100.00
20455;BME280;10386;54.314;10.022;2023-03-03T09:12:28;101598.09;;;4.71;100.00
20455;BME280;10386;54.314;10.022;2023-03-03T09:14:59;101598.28;;;4.89;100.00
20455;BME280;10386;54.314;10.022;2023-03-03T09:17:31;101554.44;;;4.87;100.00
20455;BME280;10386;54.314;10.022;2023-03-03T09:20:10;101562.38;;;4.90;100.00
20455;BME280;10386;54.314;10.022;2023-03-03T09:22:43;101556.44;;;5.05;100.00
20455;BME280;10386;54.314;10.022;2023-03-03T09:25:22;101561.81;;;5.05;100.00
20455;BME280;10386;54.314;10.022;2023-03-03T09:27:53;101565.84;;;5.18;100.00
20455;BME280;10386;54.314;10.022;2023-03-03T09:32:55;101584.97;;;5.34;100.00
20455;BME280;10386;54.314;10.022;2023-03-03T09:35:35;101594.03;;;5.31;100.00
20455;BME280;10386;54.314;10.022;2023-03-03T09:49:21;101631.53;;;5.36;100.00
20455;BME280;10386;54.314;10.022;2023-03-03T09:52:02;101631.78;;;5.30;100.00
20455;BME280;10386;54.314;10.022;2023-03-03T10:00:54;101653.16;;;5.34;100.00
20455;BME280;10386;54.314;10.022;2023-03-03T10:06:11;101669.94;;;5.40;100.00
20455;BME280;10386;54.314;10.022;2023-03-03T10:19:47;101722.38;;;5.31;100.00
20455;BME280;10386;54.314;10.022;2023-03-03T10:22:52;101726.34;;;5.45;100.00
20455;BME280;10386;54.314;10.022;2023-03-03T10:25:40;101763.66;;;5.55;100.00
20455;BME280;10386;54.314;10.022;2023-03-03T10:37:15;101809.28;;;5.60;100.00
20455;BME280;10386;54.314;10.022;2023-03-03T10:42:58;101823.84;;;5.80;100.00
20455;BME280;10386;54.314;10.022;2023-03-03T10:45:49;101846.44;;;5.75;100.00
20455;BME280;10386;54.314;10.022;2023-03-03T10:51:40;101920.66;;;5.85;100.00
20455;BME280;10386;54.314;10.022;2023-03-03T10:57:22;101927.06;;;5.81;100.00
20455;BME280;10386;54.314;10.022;2023-03-03T11:07:57;101945.97;;;6.05;100.00
20455;BME280;10386;54.314;10.022;2023-03-03T11:10:43;101949.34;;;6.12;100.00
20455;BME280;10386;54.314;10.022;2023-03-03T11:19:11;101978.56;;;6.24;100.00
20455;BME280;10386;54.314;10.022;2023-03-03T11:31:02;102017.38;;;6.20;100.00
20455;BME280;10386;54.314;10.022;2023-03-03T11:36:17;102046.81;;;6.26;100.00
20455;BME280;10386;54.314;10.022;2023-03-03T11:38:59;102054.34;;;6.42;100.00
20455;BME280;10386;54.314;10.022;2023-03-03T11:44:03;102073.78;;;6.26;100.00
20455;BME280;10386;54.314;10.022;2023-03-03T11:46:50;102076.94;;;6.38;100.00
20455;BME280;10386;54.314;10.022;2023-03-03T11:49:35;102086.94;;;6.35;100.00
20455;BME280;10386;54.314;10.022;2023-03-03T11:58:13;102113.13;;;6.31;100.00
20455;BME280;10386;54.314;10.022;2023-03-03T12:00:51;102106.97;;;6.28;100.00
20455;BME280;10386;54.314;10.022;2023-03-03T12:14:11;102153.69;;;6.28;100.00
20455;BME280;10386;54.314;10.022;2023-03-03T12:27:24;102174.25;;;6.58;100.00
20455;BME280;10386;54.314;10.022;2023-03-03T12:38:26;102197.91;;;7.02;100.00
20455;BME280;10386;54.314;10.022;2023-03-03T12:41:02;102199.94;;;6.95;100.00
20455;BME280;10386;54.314;10.022;2023-03-03T12:49:31;102211.03;;;7.12;100.00
20455;BME280;10386;54.314;10.022;2023-03-03T12:57:55;102231.13;;;7.04;100.00
20455;BME280;10386;54.314;10.022;2023-03-03T13:03:17;102225.88;;;7.25;100.00
20455;BME280;10386;54.314;10.022;2023-03-03T13:05:54;102224.44;;;7.15;100.00
20455;BME280;10386;54.314;10.022;2023-03-03T13:11:51;102226.19;;;7.16;100.00
20455;BME280;10386;54.314;10.022;2023-03-03T13:26:13;102234.63;;;7.07;100.00
20455;BME280;10386;54.314;10.022;2023-03-03T13:31:23;102221.41;;;7.24;100.00
20455;BME280;10386;54.314;10.022;2023-03-03T13:33:55;102236.56;;;7.53;100.00
20455;BME280;10386;54.314;10.022;2023-03-03T13:36:28;102231.81;;;7.59;100.00
20455;BME280;10386;54.314;10.022;2023-03-03T13:39:01;102225.47;;;7.60;100.00
20455;BME280;10386;54.314;10.022;2023-03-03T13:42:02;102226.38;;;7.84;100.00
20455;BME280;10386;54.314;10.022;2023-03-03T13:44:35;102225.41;;;7.86;100.00
20455;BME280;10386;54.314;10.022;2023-03-03T13:49:44;102230.84;;;7.85;100.00
20455;BME280;10386;54.314;10.022;2023-03-03T13:52:20;102223.44;;;7.67;100.00
20455;BME280;10386;54.314;10.022;2023-03-03T13:55:06;102223.31;;;7.70;100.00
20455;BME280;10386;54.314;10.022;2023-03-03T13:57:44;102223.66;;;7.84;100.00
20455;BME280;10386;54.314;10.022;2023-03-03T14:00:28;102225.50;;;7.83;100.00
20455;BME280;10386;54.314;10.022;2023-03-03T14:03:05;102220.69;;;7.68;100.00
20455;BME280;10386;54.314;10.022;2023-03-03T14:05:43;102216.34;;;7.40;100.00
20455;BME280;10386;54.314;10.022;2023-03-03T14:16:45;102212.59;;;7.44;100.00
20455;BME280;10386;54.314;10.022;2023-03-03T14:21:52;102216.13;;;7.46;100.00
20455;BME280;10386;54.314;10.022;2023-03-03T14:24:23;102213.75;;;7.37;100.00
20455;BME280;10386;54.314;10.022;2023-03-03T14:26:55;102215.44;;;7.39;100.00
20455;BME280;10386;54.314;10.022;2023-03-03T14:31:52;102218.00;;;7.44;100.00
20455;BME280;10386;54.314;10.022;2023-03-03T14:36:50;102200.78;;;7.22;100.00
20455;BME280;10386;54.314;10.022;2023-03-03T14:39:35;102199.78;;;7.24;100.00
20455;BME280;10386;54.314;10.022;2023-03-03T14:42:48;102204.13;;;7.30;100.00
20455;BME280;10386;54.314;10.022;2023-03-03T14:45:29;102194.28;;;7.27;100.00
20455;BME280;10386;54.314;10.022;2023-03-03T14:47:58;102194.63;;;7.18;100.00
20455;BME280;10386;54.314;10.022;2023-03-03T14:50:34;102186.06;;;7.06;100.00
20455;BME280;10386;54.314;10.022;2023-03-03T14:53:14;102196.38;;;7.19;100.00
20455;BME280;10386;54.314;10.022;2023-03-03T14:55:43;102186.16;;;7.03;100.00
20455;BME280;10386;54.314;10.022;2023-03-03T15:03:48;102184.91;;;7.37;100.00
20455;BME280;10386;54.314;10.022;2023-03-03T15:06:45;102180.50;;;7.10;100.00
20455;BME280;10386;54.314;10.022;2023-03-03T15:09:24;102176.91;;;7.10;100.00
20455;BME280;10386;54.314;10.022;2023-03-03T15:11:57;102171.91;;;6.99;100.00
20455;BME280;10386;54.314;10.022;2023-03-03T15:14:37;102178.97;;;7.03;100.00
20455;BME280;10386;54.314;10.022;2023-03-03T15:17:25;102179.22;;;6.96;100.00
20455;BME280;10386;54.314;10.022;2023-03-03T15:25:16;102187.75;;;6.58;100.00
20455;BME280;10386;54.314;10.022;2023-03-03T15:36:41;102183.63;;;6.47;100.00
20455;BME280;10386;54.314;10.022;2023-03-03T15:41:54;102185.69;;;6.39;100.00
20455;BME280;10386;54.314;10.022;2023-03-03T15:44:37;102184.75;;;6.41;100.00
20455;BME280;10386;54.314;10.022;2023-03-03T15:55:51;102173.75;;;6.20;100.00
20455;BME280;10386;54.314;10.022;2023-03-03T16:01:17;102156.00;;;6.13;100.00
20455;BME280;10386;54.314;10.022;2023-03-03T16:06:50;102157.13;;;6.06;100.00
20455;BME280;10386;54.314;10.022;2023-03-03T16:12:30;102149.16;;;6.03;100.00
20455;BME280;10386;54.314;10.022;2023-03-03T16:17:57;102151.16;;;5.96;100.00
20455;BME280;10386;54.314;10.022;2023-03-03T16:31:55;102140.25;;;5.70;100.00
20455;BME280;10386;54.314;10.022;2023-03-03T16:34:35;102139.47;;;5.67;100.00
20455;BME280;10386;54.314;10.022;2023-03-03T16:37:13;102144.25;;;5.57;100.00
20455;BME280;10386;54.314;10.022;2023-03-03T16:40:20;102145.13;;;5.58;100.00
20455;BME280;10386;54.314;10.022;2023-03-03T16:42:56;102131.97;;;5.47;100.00
20455;BME280;10386;54.314;10.022;2023-03-03T16:45:36;102140.28;;;5.40;100.00
20455;BME280;10386;54.314;10.022;2023-03-03T16:58:54;102128.03;;;5.30;100.00
20455;BME280;10386;54.314;10.022;2023-03-03T17:07:01;102113.84;;;5.24;100.00
20455;BME280;10386;54.314;10.022;2023-03-03T17:15:52;102118.75;;;5.10;100.00
20455;BME280;10386;54.314;10.022;2023-03-03T17:24:29;102112.66;;;5.03;100.00
20455;BME280;10386;54.314;10.022;2023-03-03T17:27:25;102111.72;;;5.04;100.00
20455;BME280;10386;54.314;10.022;2023-03-03T17:32:54;102104.06;;;4.91;100.00